createdAt,value
2023-05-17T00:00:44.171Z,50.50
2023-05-17T00:01:45.182Z,50.60
2023-05-17T00:02:45.243Z,50.56
2023-05-17T00:03:45.273Z,50.57
2023-05-17T00:04:44.387Z,50.60
2023-05-17T00:05:44.395Z,50.63
2023-05-17T00:06:44.456Z,50.53
2023-05-17T00:07:44.511Z,50.62
2023-05-17T00:08:45.560Z,50.49
2023-05-17T00:09:45.625Z,50.57
2023-05-17T00:10:45.669Z,50.60
2023-05-17T00:11:44.756Z,50.59
2023-05-17T00:12:45.814Z,50.59
2023-05-17T00:13:45.915Z,50.52
2023-05-17T00:14:45.937Z,50.54
2023-05-17T00:15:45.958Z,50.54
2023-05-17T00:16:46.111Z,50.58
2023-05-17T00:17:45.282Z,50.58
2023-05-17T00:18:45.294Z,50.59
2023-05-17T00:19:46.275Z,50.61
2023-05-17T00:20:46.261Z,50.53
2023-05-17T00:21:46.310Z,50.63
2023-05-17T00:22:46.431Z,50.55
2023-05-17T00:23:45.489Z,50.52
2023-05-17T00:24:46.469Z,50.55
2023-05-17T00:25:45.604Z,50.59
2023-05-17T00:26:46.618Z,50.54
2023-05-17T00:27:46.689Z,50.64
2023-05-17T00:28:45.764Z,50.49
2023-05-17T00:29:45.834Z,50.57
2023-05-17T00:30:46.857Z,50.51
2023-05-17T00:31:46.899Z,50.59
2023-05-17T00:32:47.201Z,50.53
2023-05-17T00:33:46.029Z,50.50
2023-05-17T00:34:47.137Z,50.54
2023-05-17T00:35:46.147Z,50.51
2023-05-17T00:36:46.182Z,50.58
2023-05-17T00:37:47.184Z,50.51
2023-05-17T00:38:47.244Z,50.60
2023-05-17T00:39:46.313Z,50.48
2023-05-17T00:40:47.364Z,50.54
2023-05-17T00:41:47.426Z,50.54
2023-05-17T00:42:47.513Z,50.58
2023-05-17T00:43:46.584Z,50.49
2023-05-17T00:44:46.613Z,50.61
2023-05-17T00:45:47.692Z,50.51
2023-05-17T00:46:46.783Z,50.56
2023-05-17T00:47:47.938Z,50.50
2023-05-17T00:48:48.022Z,50.56
2023-05-17T00:49:48.078Z,50.51
2023-05-17T00:50:48.071Z,50.54
2023-05-17T00:51:47.099Z,50.42
2023-05-17T00:52:47.180Z,50.56
2023-05-17T00:53:48.201Z,50.54
2023-05-17T00:54:48.279Z,50.49
2023-05-17T00:55:47.333Z,50.54
2023-05-17T00:56:47.423Z,50.54
2023-05-17T00:57:47.483Z,50.48
2023-05-17T00:58:48.548Z,50.51
2023-05-17T00:59:47.587Z,50.50
2023-05-17T01:00:48.694Z,50.60
2023-05-17T01:01:48.770Z,50.62
2023-05-17T01:02:48.910Z,50.59
2023-05-17T01:03:48.030Z,50.55
2023-05-17T01:04:48.109Z,50.56
2023-05-17T01:05:48.994Z,50.59
2023-05-17T01:06:49.025Z,50.57
2023-05-17T01:07:49.173Z,50.55
2023-05-17T01:08:48.182Z,50.49
2023-05-17T01:09:49.239Z,50.56
2023-05-17T01:10:48.303Z,50.51
2023-05-17T01:11:49.345Z,50.43
2023-05-17T01:12:48.411Z,50.44
2023-05-17T01:13:48.485Z,50.49
2023-05-17T01:14:48.538Z,50.49
2023-05-17T01:15:49.590Z,50.50
2023-05-17T01:16:49.649Z,50.55
2023-05-17T01:17:48.791Z,50.50
2023-05-17T01:18:50.035Z,50.51
2023-05-17T01:19:50.164Z,50.51
2023-05-17T01:20:48.928Z,50.54
2023-05-17T01:21:49.969Z,50.51
2023-05-17T01:22:50.032Z,50.45
2023-05-17T01:23:50.136Z,50.50
2023-05-17T01:24:49.148Z,50.50
2023-05-17T01:25:50.226Z,50.53
2023-05-17T01:26:50.287Z,50.47
2023-05-17T01:27:50.413Z,50.46
2023-05-17T01:28:50.442Z,50.53
2023-05-17T01:29:50.429Z,50.58
2023-05-17T01:30:50.467Z,50.56
2023-05-17T01:31:49.545Z,50.43
2023-05-17T01:32:50.538Z,50.40
2023-05-17T01:33:49.662Z,50.43
2023-05-17T01:34:49.597Z,50.47
2023-05-17T01:35:50.656Z,50.46
2023-05-17T01:36:49.696Z,50.51
2023-05-17T01:37:50.738Z,50.52
2023-05-17T01:38:49.822Z,50.52
2023-05-17T01:39:50.879Z,50.50
2023-05-17T01:40:49.937Z,50.40
2023-05-17T01:41:50.997Z,50.40
2023-05-17T01:42:49.987Z,50.42
2023-05-17T01:43:51.181Z,50.48
2023-05-17T01:44:51.019Z,50.44
2023-05-17T01:45:50.019Z,50.45
2023-05-17T01:46:51.041Z,50.42
2023-05-17T01:47:51.169Z,50.37
2023-05-17T01:48:51.097Z,50.42
2023-05-17T01:49:50.059Z,50.41
2023-05-17T01:50:51.071Z,50.44
2023-05-17T01:51:50.265Z,50.52
2023-05-17T01:52:51.336Z,50.41
2023-05-17T01:53:50.103Z,50.44
2023-05-17T01:54:50.137Z,50.41
2023-05-17T01:55:51.238Z,50.40
2023-05-17T01:56:50.256Z,50.39
2023-05-17T01:57:50.144Z,50.46
2023-05-17T01:58:51.135Z,50.42
2023-05-17T01:59:51.142Z,50.49
2023-05-17T02:00:51.325Z,50.49
2023-05-17T02:01:50.252Z,50.43
2023-05-17T02:02:51.220Z,50.44
2023-05-17T02:03:50.283Z,50.40
2023-05-17T02:04:51.237Z,50.43
2023-05-17T02:05:50.204Z,50.35
2023-05-17T02:06:51.241Z,50.44
2023-05-17T02:07:50.343Z,50.44
2023-05-17T02:08:51.266Z,50.49
2023-05-17T02:09:50.292Z,50.46
2023-05-17T02:10:51.282Z,50.37
2023-05-17T02:11:51.285Z,50.40
2023-05-17T02:12:50.289Z,50.39
2023-05-17T02:13:50.313Z,50.41
2023-05-17T02:14:50.274Z,50.44
2023-05-17T02:15:51.275Z,50.36
2023-05-17T02:16:51.316Z,50.39
2023-05-17T02:17:51.473Z,50.40
2023-05-17T02:18:51.641Z,50.45
2023-05-17T02:19:50.545Z,50.42
2023-05-17T02:20:50.549Z,50.45
2023-05-17T02:21:51.406Z,50.39
2023-05-17T02:22:51.446Z,50.35
2023-05-17T02:23:51.568Z,50.38
2023-05-17T02:24:51.439Z,50.43
2023-05-17T02:25:50.420Z,50.39
2023-05-17T02:26:50.448Z,50.38
2023-05-17T02:27:50.446Z,50.38
2023-05-17T02:28:51.541Z,50.35
2023-05-17T02:29:50.670Z,50.40
2023-05-17T02:30:51.648Z,50.40
2023-05-17T02:31:50.761Z,50.36
2023-05-17T02:32:51.812Z,50.38
2023-05-17T02:33:50.759Z,50.35
2023-05-17T02:34:50.704Z,50.34
2023-05-17T02:35:51.714Z,50.38
2023-05-17T02:36:50.807Z,50.36
2023-05-17T02:37:51.839Z,50.38
2023-05-17T02:38:50.832Z,50.38
2023-05-17T02:39:50.942Z,50.35
2023-05-17T02:40:51.849Z,50.34
2023-05-17T02:41:51.838Z,50.36
2023-05-17T02:42:51.852Z,50.36
2023-05-17T02:43:50.882Z,50.33
2023-05-17T02:44:51.873Z,50.40
2023-05-17T02:45:50.895Z,50.40
2023-05-17T02:46:52.004Z,50.39
2023-05-17T02:47:51.147Z,50.36
2023-05-17T02:48:51.048Z,50.32
2023-05-17T02:49:52.081Z,50.28
2023-05-17T02:50:51.129Z,50.27
2023-05-17T02:51:52.157Z,50.41
2023-05-17T02:52:52.178Z,50.29
2023-05-17T02:53:52.220Z,50.35
2023-05-17T02:54:51.281Z,50.31
2023-05-17T02:55:52.527Z,50.37
2023-05-17T02:56:52.317Z,50.24
2023-05-17T02:57:52.402Z,50.35
2023-05-17T02:58:52.401Z,50.32
2023-05-17T02:59:52.380Z,50.30
2023-05-17T03:00:52.399Z,50.25
2023-05-17T03:01:52.399Z,50.24
2023-05-17T03:02:51.545Z,50.28
2023-05-17T03:03:51.720Z,50.36
2023-05-17T03:04:51.575Z,50.31
2023-05-17T03:05:51.433Z,50.29
2023-05-17T03:06:51.462Z,50.25
2023-05-17T03:07:52.594Z,50.31
2023-05-17T03:08:51.676Z,50.27
2023-05-17T03:09:52.718Z,50.27
2023-05-17T03:10:52.471Z,50.31
2023-05-17T03:11:52.626Z,50.26
2023-05-17T03:12:51.644Z,50.29
2023-05-17T03:13:52.562Z,50.37
2023-05-17T03:14:52.523Z,50.30
2023-05-17T03:15:52.496Z,50.32
2023-05-17T03:16:51.485Z,50.22
2023-05-17T03:17:52.481Z,50.31
2023-05-17T03:18:51.581Z,50.22
2023-05-17T03:19:52.613Z,50.23
2023-05-17T03:20:51.460Z,50.23
2023-05-17T03:21:52.475Z,50.21
2023-05-17T03:22:52.426Z,50.20
2023-05-17T03:23:52.430Z,50.26
2023-05-17T03:24:51.421Z,50.19
2023-05-17T03:25:51.411Z,50.26
2023-05-17T03:26:51.426Z,50.26
2023-05-17T03:27:52.541Z,50.26
2023-05-17T03:28:51.462Z,50.26
2023-05-17T03:29:52.431Z,50.25
2023-05-17T03:30:51.481Z,50.22
2023-05-17T03:31:52.504Z,50.31
2023-05-17T03:32:52.662Z,50.33
2023-05-17T03:33:52.657Z,50.30
2023-05-17T03:34:52.461Z,50.29
2023-05-17T03:35:52.415Z,50.31
2023-05-17T03:36:52.424Z,50.29
2023-05-17T03:37:51.427Z,50.27
2023-05-17T03:38:52.414Z,50.32
2023-05-17T03:39:51.401Z,50.28
2023-05-17T03:40:51.507Z,50.27
2023-05-17T03:41:52.423Z,50.23
2023-05-17T03:42:51.419Z,50.26
2023-05-17T03:43:52.519Z,50.23
2023-05-17T03:44:52.438Z,50.26
2023-05-17T03:45:52.582Z,50.14
2023-05-17T03:46:51.609Z,50.21
2023-05-17T03:47:51.643Z,50.14
2023-05-17T03:48:52.468Z,50.14
2023-05-17T03:49:51.460Z,50.20
2023-05-17T03:50:52.571Z,50.27
2023-05-17T03:51:51.436Z,50.31
2023-05-17T03:52:52.546Z,50.26
2023-05-17T03:53:52.597Z,50.29
2023-05-17T03:54:51.459Z,50.27
2023-05-17T03:55:51.446Z,50.25
2023-05-17T03:56:51.451Z,50.26
2023-05-17T03:57:52.440Z,50.22
2023-05-17T03:58:52.593Z,50.20
2023-05-17T03:59:51.521Z,50.29
2023-05-17T04:00:51.428Z,50.19
2023-05-17T04:01:52.423Z,50.28
2023-05-17T04:02:52.501Z,50.25
2023-05-17T04:03:52.491Z,50.21
2023-05-17T04:04:51.483Z,50.20
2023-05-17T04:05:51.410Z,50.14
2023-05-17T04:06:51.413Z,50.22
2023-05-17T04:07:52.441Z,50.20
2023-05-17T04:08:52.401Z,50.19
2023-05-17T04:09:52.396Z,50.16
2023-05-17T04:10:52.519Z,50.16
2023-05-17T04:11:52.467Z,50.17
2023-05-17T04:12:52.534Z,50.15
2023-05-17T04:13:51.586Z,50.15
2023-05-17T04:14:52.540Z,50.17
2023-05-17T04:15:51.493Z,50.14
2023-05-17T04:16:52.541Z,50.16
2023-05-17T04:17:52.547Z,50.12
2023-05-17T04:18:52.502Z,50.15
2023-05-17T04:19:52.609Z,50.11
2023-05-17T04:20:52.453Z,50.15
2023-05-17T04:21:52.476Z,50.16
2023-05-17T04:22:52.418Z,50.09
2023-05-17T04:23:51.387Z,50.19
2023-05-17T04:24:52.381Z,50.14
2023-05-17T04:25:52.383Z,50.21
2023-05-17T04:26:52.379Z,50.06
2023-05-17T04:27:51.384Z,50.10
2023-05-17T04:28:51.390Z,50.17
2023-05-17T04:29:51.396Z,50.17
2023-05-17T04:30:52.518Z,50.16
2023-05-17T04:31:52.532Z,50.17
2023-05-17T04:32:52.550Z,50.22
2023-05-17T04:33:51.519Z,50.11
2023-05-17T04:34:52.520Z,50.09
2023-05-17T04:35:51.441Z,50.17
2023-05-17T04:36:52.446Z,50.13
2023-05-17T04:37:51.501Z,50.07
2023-05-17T04:38:51.554Z,50.15
2023-05-17T04:39:52.486Z,50.10
2023-05-17T04:40:52.469Z,50.09
2023-05-17T04:41:51.492Z,50.03
2023-05-17T04:42:51.483Z,50.06
2023-05-17T04:43:52.466Z,50.05
2023-05-17T04:44:52.487Z,50.12
2023-05-17T04:45:52.529Z,50.13
2023-05-17T04:46:52.485Z,50.11
2023-05-17T04:47:51.555Z,49.99
2023-05-17T04:48:52.556Z,50.11
2023-05-17T04:49:52.466Z,50.07
2023-05-17T04:50:52.462Z,50.11
2023-05-17T04:51:52.451Z,50.06
2023-05-17T04:52:52.451Z,50.05
2023-05-17T04:53:52.455Z,50.06
2023-05-17T04:54:51.446Z,50.09
2023-05-17T04:55:52.442Z,50.09
2023-05-17T04:56:52.436Z,50.01
2023-05-17T04:57:52.437Z,50.04
2023-05-17T04:58:53.019Z,50.09
2023-05-17T04:59:51.557Z,50.13
2023-05-17T05:00:52.638Z,50.16
2023-05-17T05:01:52.601Z,50.16
2023-05-17T05:02:52.529Z,50.13
2023-05-17T05:03:52.452Z,50.12
2023-05-17T05:04:51.474Z,50.09
2023-05-17T05:05:52.432Z,50.09
2023-05-17T05:06:52.418Z,50.11
2023-05-17T05:07:51.437Z,50.13
2023-05-17T05:08:52.604Z,49.99
2023-05-17T05:09:52.603Z,50.07
2023-05-17T05:10:51.469Z,50.05
2023-05-17T05:11:51.410Z,50.05
2023-05-17T05:12:52.549Z,50.09
2023-05-17T05:13:52.505Z,50.01
2023-05-17T05:14:52.421Z,50.08
2023-05-17T05:15:51.423Z,50.12
2023-05-17T05:16:52.500Z,50.05
2023-05-17T05:17:51.631Z,50.08
2023-05-17T05:18:52.554Z,50.09
2023-05-17T05:19:52.719Z,50.07
2023-05-17T05:20:52.513Z,50.03
2023-05-17T05:21:52.485Z,50.07
2023-05-17T05:22:52.417Z,50.01
2023-05-17T05:23:52.396Z,50.09
2023-05-17T05:24:52.403Z,50.00
2023-05-17T05:25:51.405Z,50.00
2023-05-17T05:26:51.403Z,49.96
2023-05-17T05:27:52.389Z,50.00
2023-05-17T05:28:52.377Z,50.01
2023-05-17T05:29:51.388Z,49.86
2023-05-17T05:30:52.385Z,49.56
2023-05-17T05:31:52.391Z,49.23
2023-05-17T05:32:52.506Z,49.10
2023-05-17T05:33:51.543Z,49.32
2023-05-17T05:34:51.398Z,49.15
2023-05-17T05:35:51.506Z,49.17
2023-05-17T05:36:51.459Z,49.65
2023-05-17T05:37:52.380Z,49.41
2023-05-17T05:38:52.389Z,49.66
2023-05-17T05:39:52.419Z,49.50
2023-05-17T05:40:52.546Z,49.32
2023-05-17T05:41:52.427Z,49.60
2023-05-17T05:42:52.425Z,49.24
2023-05-17T05:43:51.437Z,49.09
2023-05-17T05:44:52.432Z,49.06
2023-05-17T05:45:52.453Z,48.96
2023-05-17T05:46:52.450Z,48.90
2023-05-17T05:47:51.597Z,49.12
2023-05-17T05:48:52.545Z,48.94
2023-05-17T05:49:51.525Z,48.93
2023-05-17T05:50:51.620Z,48.76
2023-05-17T05:51:52.731Z,48.59
2023-05-17T05:52:56.295Z,48.81
2023-05-17T05:53:52.725Z,49.02
2023-05-17T05:54:52.702Z,48.85
2023-05-17T05:55:52.662Z,49.85
2023-05-17T05:56:52.658Z,50.42
2023-05-17T05:57:52.686Z,49.48
2023-05-17T05:58:51.687Z,50.27
2023-05-17T05:59:52.630Z,49.46
2023-05-17T06:00:55.170Z,49.40
2023-05-17T06:01:53.727Z,49.62
2023-05-17T06:02:51.709Z,50.25
2023-05-17T06:03:51.582Z,49.66
2023-05-17T06:04:52.582Z,49.54
2023-05-17T06:05:52.674Z,50.05
2023-05-17T06:06:51.793Z,50.88
2023-05-17T06:07:51.637Z,50.45
2023-05-17T06:08:52.660Z,50.47
2023-05-17T06:09:52.652Z,50.14
2023-05-17T06:10:51.683Z,50.87
2023-05-17T06:11:51.701Z,50.57
2023-05-17T06:12:51.692Z,50.70
2023-05-17T06:13:52.707Z,50.75
2023-05-17T06:14:51.725Z,50.28
2023-05-17T06:15:51.718Z,50.48
2023-05-17T06:16:52.706Z,51.09
2023-05-17T06:17:53.015Z,51.54
2023-05-17T06:18:53.275Z,50.98
2023-05-17T06:19:53.803Z,50.71
2023-05-17T06:20:54.301Z,50.74
2023-05-17T06:21:53.239Z,50.75
2023-05-17T06:22:52.009Z,51.07
2023-05-17T06:23:53.108Z,51.06
2023-05-17T06:24:53.047Z,50.80
2023-05-17T06:25:53.153Z,50.85
2023-05-17T06:26:52.169Z,51.06
2023-05-17T06:27:54.221Z,50.91
2023-05-17T06:28:53.390Z,51.03
2023-05-17T06:29:52.491Z,50.98
2023-05-17T06:30:52.404Z,51.06
2023-05-17T06:31:52.394Z,51.80
2023-05-17T06:32:56.540Z,51.17
2023-05-17T06:33:52.536Z,51.61
2023-05-17T06:34:53.412Z,51.68
2023-05-17T06:35:56.988Z,51.46
2023-05-17T06:36:53.429Z,51.49
2023-05-17T06:37:54.180Z,51.82
2023-05-17T06:38:53.387Z,51.85
2023-05-17T06:40:00.031Z,52.13
2023-05-17T06:40:53.368Z,52.33
2023-05-17T06:41:53.383Z,52.38
2023-05-17T06:42:52.397Z,52.40
2023-05-17T06:43:53.365Z,52.05
2023-05-17T06:44:53.039Z,52.00
2023-05-17T06:45:53.357Z,52.20
2023-05-17T06:46:53.333Z,52.26
2023-05-17T06:47:53.393Z,52.26
2023-05-17T06:48:53.479Z,52.40
2023-05-17T06:49:53.502Z,52.79
2023-05-17T06:50:52.360Z,52.64
2023-05-17T06:51:52.310Z,52.94
2023-05-17T06:52:53.308Z,52.11
2023-05-17T06:53:53.321Z,52.54
2023-05-17T06:54:53.272Z,51.84
2023-05-17T06:55:53.815Z,52.94
2023-05-17T06:56:53.295Z,52.53
2023-05-17T06:57:53.283Z,52.62
2023-05-17T06:58:52.449Z,52.85
2023-05-17T06:59:53.252Z,52.46
2023-05-17T07:00:52.237Z,53.48
2023-05-17T07:01:52.238Z,53.02
2023-05-17T07:02:53.422Z,53.06
2023-05-17T07:03:53.511Z,53.19
2023-05-17T07:04:53.249Z,53.06
2023-05-17T07:05:53.236Z,53.09
2023-05-17T07:06:53.219Z,53.41
2023-05-17T07:07:53.541Z,53.13
2023-05-17T07:08:53.196Z,53.29
2023-05-17T07:09:55.058Z,53.34
2023-05-17T07:10:54.913Z,53.50
2023-05-17T07:11:53.857Z,53.82
2023-05-17T07:12:52.579Z,54.03
2023-05-17T07:13:54.506Z,53.73
2023-05-17T07:14:53.252Z,53.72
2023-05-17T07:15:53.147Z,54.01
2023-05-17T07:16:53.152Z,53.96
2023-05-17T07:17:52.146Z,53.80
2023-05-17T07:18:52.270Z,53.46
2023-05-17T07:19:53.613Z,53.68
2023-05-17T07:20:53.128Z,53.78
2023-05-17T07:21:53.212Z,53.84
2023-05-17T07:22:53.136Z,53.75
2023-05-17T07:23:53.175Z,53.47
2023-05-17T07:24:52.151Z,54.59
2023-05-17T07:25:53.124Z,53.85
2023-05-17T07:26:53.091Z,53.96
2023-05-17T07:27:53.267Z,53.98
2023-05-17T07:28:53.072Z,54.30
2023-05-17T07:29:52.099Z,54.08
2023-05-17T07:30:52.128Z,53.81
2023-05-17T07:31:53.049Z,53.73
2023-05-17T07:32:53.070Z,54.06
2023-05-17T07:33:53.107Z,54.32
2023-05-17T07:34:52.041Z,53.59
2023-05-17T07:35:52.086Z,53.99
2023-05-17T07:36:53.034Z,54.17
2023-05-17T07:37:52.020Z,53.91
2023-05-17T07:38:53.020Z,54.61
2023-05-17T07:39:52.121Z,54.86
2023-05-17T07:40:53.190Z,54.36
2023-05-17T07:41:53.082Z,53.86
2023-05-17T07:42:53.019Z,54.73
2023-05-17T07:43:53.464Z,54.32
2023-05-17T07:44:53.004Z,54.37
2023-05-17T07:45:52.975Z,54.77
2023-05-17T07:46:53.058Z,53.68
2023-05-17T07:47:52.191Z,53.71
2023-05-17T07:48:54.445Z,55.08
2023-05-17T07:49:53.283Z,54.88
2023-05-17T07:50:52.589Z,54.86
2023-05-17T07:51:52.172Z,54.45
2023-05-17T07:52:52.134Z,54.75
2023-05-17T07:53:53.124Z,54.97
2023-05-17T07:54:53.103Z,55.08
2023-05-17T07:55:53.095Z,55.21
2023-05-17T07:56:53.155Z,55.20
2023-05-17T07:57:53.082Z,55.34
2023-05-17T07:58:52.119Z,55.53
2023-05-17T07:59:53.168Z,55.55
2023-05-17T08:00:52.111Z,55.59
2023-05-17T08:01:52.124Z,55.69
2023-05-17T08:02:53.076Z,55.60
2023-05-17T08:03:52.037Z,55.57
2023-05-17T08:04:53.123Z,55.72
2023-05-17T08:05:52.073Z,55.51
2023-05-17T08:06:53.033Z,55.77
2023-05-17T08:07:53.032Z,55.82
2023-05-17T08:08:53.024Z,55.78
2023-05-17T08:09:53.017Z,55.89
2023-05-17T08:10:53.236Z,56.10
2023-05-17T08:11:53.008Z,56.16
2023-05-17T08:12:51.987Z,56.32
2023-05-17T08:13:52.957Z,56.31
2023-05-17T08:14:52.974Z,56.38
2023-05-17T08:16:01.214Z,56.48
2023-05-17T08:16:52.963Z,56.66
2023-05-17T08:17:53.036Z,56.46
2023-05-17T08:18:53.127Z,56.59
2023-05-17T08:19:51.975Z,56.57
2023-05-17T08:20:51.972Z,56.21
2023-05-17T08:21:52.938Z,56.43
2023-05-17T08:22:52.907Z,56.42
2023-05-17T08:23:51.904Z,56.29
2023-05-17T08:24:52.915Z,56.37
2023-05-17T08:25:52.963Z,56.69
2023-05-17T08:26:52.904Z,56.38
2023-05-17T08:27:51.887Z,56.34
2023-05-17T08:28:52.852Z,56.53
2023-05-17T08:29:52.867Z,56.26
2023-05-17T08:30:51.866Z,56.55
2023-05-17T08:31:52.862Z,56.66
2023-05-17T08:32:52.957Z,56.75
2023-05-17T08:33:51.883Z,56.48
2023-05-17T08:34:52.821Z,56.44
2023-05-17T08:35:52.820Z,56.62
2023-05-17T08:36:52.861Z,56.52
2023-05-17T08:37:52.808Z,56.43
2023-05-17T08:38:52.804Z,56.27
2023-05-17T08:39:52.850Z,56.34
2023-05-17T08:40:53.138Z,56.51
2023-05-17T08:41:51.840Z,56.49
2023-05-17T08:42:52.796Z,56.36
2023-05-17T08:43:51.823Z,56.45
2023-05-17T08:44:51.808Z,56.54
2023-05-17T08:45:53.110Z,56.48
2023-05-17T08:46:52.772Z,56.30
2023-05-17T08:47:51.859Z,56.40
2023-05-17T08:48:52.850Z,56.44
2023-05-17T08:49:52.721Z,56.48
2023-05-17T08:50:53.124Z,56.59
2023-05-17T08:51:52.700Z,56.58
2023-05-17T08:52:52.783Z,56.54
2023-05-17T08:53:52.690Z,56.41
2023-05-17T08:54:52.691Z,56.30
2023-05-17T08:55:51.686Z,56.45
2023-05-17T08:56:51.716Z,56.27
2023-05-17T08:57:52.719Z,56.22
2023-05-17T08:58:57.005Z,56.12
2023-05-17T08:59:52.658Z,56.13
2023-05-17T09:00:53.131Z,56.35
2023-05-17T09:01:51.632Z,56.15
2023-05-17T09:02:52.735Z,56.20
2023-05-17T09:03:51.802Z,56.25
2023-05-17T09:04:51.729Z,56.14
2023-05-17T09:05:52.715Z,56.25
2023-05-17T09:06:52.619Z,56.18
2023-05-17T09:07:51.600Z,56.15
2023-05-17T09:08:51.601Z,56.22
2023-05-17T09:09:52.597Z,56.13
2023-05-17T09:10:52.594Z,56.07
2023-05-17T09:11:51.590Z,55.89
2023-05-17T09:12:52.585Z,56.05
2023-05-17T09:13:51.609Z,55.90
2023-05-17T09:14:51.572Z,55.80
2023-05-17T09:15:52.549Z,55.83
2023-05-17T09:16:52.544Z,55.81
2023-05-17T09:17:51.649Z,55.84
2023-05-17T09:18:52.602Z,55.86
2023-05-17T09:19:51.640Z,55.83
2023-05-17T09:20:52.513Z,55.76
2023-05-17T09:21:52.516Z,55.67
2023-05-17T09:22:51.496Z,55.74
2023-05-17T09:24:04.684Z,55.72
2023-05-17T09:24:52.482Z,55.69
2023-05-17T09:25:52.486Z,55.69
2023-05-17T09:26:52.481Z,55.62
2023-05-17T09:27:52.493Z,55.65
2023-05-17T09:28:52.478Z,55.63
2023-05-17T09:29:51.470Z,55.63
2023-05-17T09:30:52.450Z,55.21
2023-05-17T09:31:52.449Z,55.77
2023-05-17T09:32:52.711Z,54.05
2023-05-17T09:33:52.512Z,52.53
2023-05-17T09:34:51.635Z,52.06
2023-05-17T09:35:52.525Z,49.79
2023-05-17T09:36:52.409Z,48.93
2023-05-17T09:37:52.410Z,47.33
2023-05-17T09:38:52.655Z,46.68
2023-05-17T09:39:52.517Z,46.63
2023-05-17T09:40:52.378Z,45.94
2023-05-17T09:41:51.472Z,46.27
2023-05-17T09:42:52.387Z,45.31
2023-05-17T09:43:52.387Z,45.91
2023-05-17T09:44:51.357Z,47.91
2023-05-17T09:45:51.343Z,46.96
2023-05-17T09:46:52.479Z,46.42
2023-05-17T09:47:51.474Z,45.50
2023-05-17T09:48:52.388Z,44.35
2023-05-17T09:49:51.371Z,45.39
2023-05-17T09:50:52.322Z,44.87
2023-05-17T09:51:52.690Z,45.12
2023-05-17T09:52:52.644Z,44.81
2023-05-17T09:53:52.306Z,45.35
2023-05-17T09:54:51.348Z,45.37
2023-05-17T09:55:52.466Z,45.17
2023-05-17T09:56:51.576Z,44.84
2023-05-17T09:57:52.666Z,43.69
2023-05-17T09:58:52.696Z,43.59
2023-05-17T09:59:52.607Z,42.56
2023-05-17T10:00:52.686Z,44.63
2023-05-17T10:01:52.729Z,43.74
2023-05-17T10:02:52.896Z,43.07
2023-05-17T10:03:52.874Z,42.30
2023-05-17T10:04:52.907Z,41.71
2023-05-17T10:05:52.015Z,41.32
2023-05-17T10:06:52.974Z,41.89
2023-05-17T10:07:53.234Z,41.71
2023-05-17T10:08:53.106Z,41.93
2023-05-17T10:09:53.128Z,42.04
2023-05-17T10:10:52.166Z,42.43
2023-05-17T10:11:53.247Z,42.11
2023-05-17T10:12:52.246Z,43.04
2023-05-17T10:13:52.294Z,41.29
2023-05-17T10:14:53.644Z,42.32
2023-05-17T10:15:53.392Z,41.56
2023-05-17T10:16:52.454Z,42.41
2023-05-17T10:17:53.616Z,42.14
2023-05-17T10:18:53.528Z,42.24
2023-05-17T10:19:52.716Z,42.65
2023-05-17T10:20:52.551Z,43.33
2023-05-17T10:21:53.594Z,43.06
2023-05-17T10:22:53.614Z,42.95
2023-05-17T10:23:52.885Z,43.42
2023-05-17T10:24:52.849Z,43.33
2023-05-17T10:25:53.656Z,43.57
2023-05-17T10:26:53.725Z,43.48
2023-05-17T10:27:52.766Z,43.97
2023-05-17T10:28:52.865Z,44.03
2023-05-17T10:29:53.866Z,44.21
2023-05-17T10:30:53.959Z,44.92
2023-05-17T10:31:54.279Z,44.70
2023-05-17T10:32:54.299Z,44.43
2023-05-17T10:33:53.084Z,44.79
2023-05-17T10:35:05.990Z,44.67
2023-05-17T10:35:54.229Z,44.41
2023-05-17T10:36:53.066Z,44.55
2023-05-17T10:37:54.101Z,44.50
2023-05-17T10:38:53.057Z,44.59
2023-05-17T10:39:54.187Z,44.65
2023-05-17T10:40:54.070Z,44.98
2023-05-17T10:42:06.786Z,45.32
2023-05-17T10:42:54.050Z,45.18
2023-05-17T10:43:54.025Z,46.16
2023-05-17T10:44:53.046Z,46.10
2023-05-17T10:45:54.017Z,46.38
2023-05-17T10:46:53.049Z,46.53
2023-05-17T10:47:53.111Z,46.55
2023-05-17T10:48:53.057Z,46.84
2023-05-17T10:49:53.079Z,46.75
2023-05-17T10:51:01.093Z,47.16
2023-05-17T10:51:54.013Z,46.61
2023-05-17T10:52:53.949Z,46.81
2023-05-17T10:53:53.985Z,47.25
2023-05-17T10:54:55.257Z,47.50
2023-05-17T10:55:53.104Z,47.18
2023-05-17T10:56:54.132Z,47.21
2023-05-17T10:57:52.981Z,47.17
2023-05-17T10:58:53.049Z,47.71
2023-05-17T10:59:53.968Z,47.31
2023-05-17T11:00:53.978Z,47.45
2023-05-17T11:01:54.062Z,47.44
2023-05-17T11:02:53.081Z,47.88
2023-05-17T11:03:54.095Z,47.64
2023-05-17T11:04:54.201Z,47.87
2023-05-17T11:05:54.397Z,47.63
2023-05-17T11:06:53.274Z,47.73
2023-05-17T11:07:54.295Z,47.56
2023-05-17T11:08:54.339Z,47.87
2023-05-17T11:09:54.405Z,47.94
2023-05-17T11:10:54.465Z,47.79
2023-05-17T11:11:53.572Z,48.86
2023-05-17T11:12:54.604Z,48.28
2023-05-17T11:13:54.714Z,48.05
2023-05-17T11:14:54.755Z,48.58
2023-05-17T11:15:53.810Z,49.09
2023-05-17T11:16:55.214Z,48.99
2023-05-17T11:17:54.051Z,48.80
2023-05-17T11:18:54.265Z,48.90
2023-05-17T11:19:55.260Z,48.96
2023-05-17T11:20:55.176Z,49.11
2023-05-17T11:21:55.184Z,49.27
2023-05-17T11:22:54.221Z,49.59
2023-05-17T11:23:54.432Z,49.94
2023-05-17T11:24:55.347Z,49.61
2023-05-17T11:25:55.415Z,50.02
2023-05-17T11:26:54.478Z,49.37
2023-05-17T11:27:55.559Z,49.64
2023-05-17T11:28:55.607Z,50.36
2023-05-17T11:29:54.692Z,49.74
2023-05-17T11:30:55.743Z,49.88
2023-05-17T11:31:55.763Z,49.81
2023-05-17T11:32:55.819Z,49.73
2023-05-17T11:33:54.900Z,50.48
2023-05-17T11:34:55.886Z,50.09
2023-05-17T11:35:54.977Z,50.07
2023-05-17T11:36:56.056Z,49.32
2023-05-17T11:37:56.082Z,49.57
2023-05-17T11:39:04.972Z,49.75
2023-05-17T11:39:56.641Z,50.49
2023-05-17T11:40:56.087Z,51.07
2023-05-17T11:41:56.107Z,50.79
2023-05-17T11:42:55.095Z,50.97
2023-05-17T11:43:55.108Z,51.07
2023-05-17T11:44:56.081Z,50.99
2023-05-17T11:45:56.086Z,51.00
2023-05-17T11:46:56.061Z,51.14
2023-05-17T11:47:56.072Z,51.48
2023-05-17T11:48:55.137Z,51.37
2023-05-17T11:49:56.596Z,51.84
2023-05-17T11:50:56.051Z,52.03
2023-05-17T11:51:56.058Z,51.78
2023-05-17T11:52:56.018Z,51.92
2023-05-17T11:53:56.178Z,51.74
2023-05-17T11:54:55.997Z,51.73
2023-05-17T11:55:54.993Z,51.76
2023-05-17T11:56:56.011Z,52.02
2023-05-17T11:57:56.002Z,52.00
2023-05-17T11:58:56.019Z,52.51
2023-05-17T11:59:56.060Z,52.52
2023-05-17T12:00:56.097Z,52.53
2023-05-17T12:01:55.082Z,52.58
2023-05-17T12:02:56.200Z,52.29
2023-05-17T12:03:56.151Z,52.14
2023-05-17T12:04:55.252Z,52.32
2023-05-17T12:05:56.290Z,52.11
2023-05-17T12:06:55.605Z,52.17
2023-05-17T12:07:56.424Z,52.16
2023-05-17T12:08:56.613Z,51.76
2023-05-17T12:09:55.430Z,51.72
2023-05-17T12:10:55.472Z,51.56
2023-05-17T12:11:55.449Z,51.69
2023-05-17T12:12:55.474Z,51.61
2023-05-17T12:13:55.526Z,51.58
2023-05-17T12:14:56.534Z,51.50
2023-05-17T12:15:55.626Z,51.54
2023-05-17T12:16:56.668Z,51.43
2023-05-17T12:17:56.775Z,51.58
2023-05-17T12:18:55.959Z,51.36
2023-05-17T12:19:56.944Z,51.39
2023-05-17T12:20:56.781Z,51.66
2023-05-17T12:21:55.791Z,51.67
2023-05-17T12:22:55.865Z,51.52
2023-05-17T12:23:56.902Z,51.59
2023-05-17T12:24:56.002Z,51.50
2023-05-17T12:25:55.962Z,51.52
2023-05-17T12:26:56.002Z,51.42
2023-05-17T12:27:57.039Z,51.56
2023-05-17T12:28:56.094Z,51.55
2023-05-17T12:29:57.130Z,51.70
2023-05-17T12:30:56.198Z,51.70
2023-05-17T12:31:57.250Z,51.88
2023-05-17T12:32:57.352Z,51.51
2023-05-17T12:33:56.399Z,51.30
2023-05-17T12:34:57.376Z,51.55
2023-05-17T12:35:57.441Z,51.89
2023-05-17T12:36:56.499Z,51.86
2023-05-17T12:37:57.568Z,51.71
2023-05-17T12:38:57.641Z,51.77
2023-05-17T12:39:57.669Z,51.85
2023-05-17T12:40:57.712Z,51.85
2023-05-17T12:41:57.780Z,51.68
2023-05-17T12:42:57.858Z,52.12
2023-05-17T12:44:13.751Z,51.93
2023-05-17T12:44:58.023Z,51.77
2023-05-17T12:45:56.959Z,51.82
2023-05-17T12:46:57.000Z,51.71
2023-05-17T12:47:57.999Z,51.74
2023-05-17T12:48:57.978Z,51.88
2023-05-17T12:49:57.923Z,51.72
2023-05-17T12:50:57.902Z,51.84
2023-05-17T12:51:57.930Z,51.75
2023-05-17T12:52:57.878Z,51.80